Terminal Aerodrome Forecast
Issued by NWS Wilmington, NC

Home | Current Version | Previous Version | Text Only | Print | Product List | Glossary On
Versions: 1 2 3 4 5 6 7 8 9 10 11 12
000
FTUS42 KILM 251700
TAFMYR
TAF
KMYR 251720Z 2518/2618 31008KT P6SM SKC
     FM251900 21008KT P6SM SKC
     FM260100 00000KT P6SM FEW080
     FM260900 32006KT P6SM SCT050
     FM261400 34011KT P6SM SKC=

USA.gov is the U.S. government's official web portal to all federal, state and local government web resources and services.